sensor_id;sensor_type;location;lat;lon;timestamp;P1;durP1;ratioP1;P2;durP2;ratioP2
92;SDS011;16232;48.800;9.002;2023-05-02T00:00:59;15.33;;;12.03;;
92;SDS011;16232;48.800;9.002;2023-05-02T00:03:29;16.37;;;13.80;;
92;SDS011;16232;48.800;9.002;2023-05-02T00:05:57;14.97;;;11.90;;
92;SDS011;16232;48.800;9.002;2023-05-02T00:08:25;23.00;;;17.23;;
92;SDS011;16232;48.800;9.002;2023-05-02T00:10:53;14.80;;;12.70;;
92;SDS011;16232;48.800;9.002;2023-05-02T00:13:20;21.60;;;16.33;;
92;SDS011;16232;48.800;9.002;2023-05-02T00:15:47;20.83;;;16.40;;
92;SDS011;16232;48.800;9.002;2023-05-02T00:18:16;16.13;;;13.00;;
92;SDS011;16232;48.800;9.002;2023-05-02T00:20:44;18.43;;;14.80;;
92;SDS011;16232;48.800;9.002;2023-05-02T00:23:11;15.53;;;13.27;;
92;SDS011;16232;48.800;9.002;2023-05-02T00:25:42;18.60;;;15.27;;
92;SDS011;16232;48.800;9.002;2023-05-02T00:28:10;28.27;;;20.30;;
92;SDS011;16232;48.800;9.002;2023-05-02T00:30:41;29.27;;;20.97;;
92;SDS011;16232;48.800;9.002;2023-05-02T00:33:09;27.63;;;18.27;;
92;SDS011;16232;48.800;9.002;2023-05-02T00:35:38;34.90;;;19.57;;
92;SDS011;16232;48.800;9.002;2023-05-02T00:38:05;27.47;;;21.37;;
92;SDS011;16232;48.800;9.002;2023-05-02T00:40:41;22.37;;;17.40;;
92;SDS011;16232;48.800;9.002;2023-05-02T00:43:09;26.83;;;20.10;;
92;SDS011;16232;48.800;9.002;2023-05-02T00:45:36;19.93;;;16.27;;
92;SDS011;16232;48.800;9.002;2023-05-02T00:48:06;26.70;;;18.47;;
92;SDS011;16232;48.800;9.002;2023-05-02T00:50:34;21.00;;;16.37;;
92;SDS011;16232;48.800;9.002;2023-05-02T00:53:04;20.03;;;16.53;;
92;SDS011;16232;48.800;9.002;2023-05-02T00:55:31;17.23;;;15.43;;
92;SDS011;16232;48.800;9.002;2023-05-02T00:57:59;20.07;;;16.93;;
92;SDS011;16232;48.800;9.002;2023-05-02T01:00:29;18.90;;;15.70;;
92;SDS011;16232;48.800;9.002;2023-05-02T01:03:02;17.07;;;14.43;;
92;SDS011;16232;48.800;9.002;2023-05-02T01:05:32;18.20;;;15.03;;
92;SDS011;16232;48.800;9.002;2023-05-02T01:08:09;14.70;;;13.00;;
92;SDS011;16232;48.800;9.002;2023-05-02T01:10:41;21.30;;;16.70;;
92;SDS011;16232;48.800;9.002;2023-05-02T01:13:13;16.87;;;13.70;;
92;SDS011;16232;48.800;9.002;2023-05-02T01:15:43;12.20;;;11.00;;
92;SDS011;16232;48.800;9.002;2023-05-02T01:18:12;16.80;;;13.43;;
92;SDS011;16232;48.800;9.002;2023-05-02T01:20:43;10.70;;;9.70;;
92;SDS011;16232;48.800;9.002;2023-05-02T01:23:15;13.77;;;12.20;;
92;SDS011;16232;48.800;9.002;2023-05-02T01:25:47;11.93;;;10.80;;
92;SDS011;16232;48.800;9.002;2023-05-02T01:28:20;13.83;;;12.43;;
92;SDS011;16232;48.800;9.002;2023-05-02T01:30:54;17.03;;;13.97;;
92;SDS011;16232;48.800;9.002;2023-05-02T01:33:23;14.13;;;12.37;;
92;SDS011;16232;48.800;9.002;2023-05-02T01:35:51;17.27;;;15.13;;
92;SDS011;16232;48.800;9.002;2023-05-02T01:38:19;15.70;;;13.27;;
92;SDS011;16232;48.800;9.002;2023-05-02T01:40:47;11.87;;;10.67;;
92;SDS011;16232;48.800;9.002;2023-05-02T01:43:16;11.20;;;10.10;;
92;SDS011;16232;48.800;9.002;2023-05-02T01:45:44;15.53;;;13.83;;
92;SDS011;16232;48.800;9.002;2023-05-02T01:48:14;15.30;;;12.73;;
92;SDS011;16232;48.800;9.002;2023-05-02T01:50:42;15.60;;;12.57;;
92;SDS011;16232;48.800;9.002;2023-05-02T01:53:10;14.47;;;12.97;;
92;SDS011;16232;48.800;9.002;2023-05-02T01:55:39;14.40;;;12.73;;
92;SDS011;16232;48.800;9.002;2023-05-02T01:58:08;12.97;;;11.67;;
92;SDS011;16232;48.800;9.002;2023-05-02T02:00:35;16.47;;;13.90;;
92;SDS011;16232;48.800;9.002;2023-05-02T02:03:03;15.37;;;13.77;;
92;SDS011;16232;48.800;9.002;2023-05-02T02:05:32;14.60;;;13.10;;
92;SDS011;16232;48.800;9.002;2023-05-02T02:08:00;20.23;;;16.27;;
92;SDS011;16232;48.800;9.002;2023-05-02T02:10:28;14.30;;;12.80;;
92;SDS011;16232;48.800;9.002;2023-05-02T02:12:59;16.60;;;14.63;;
92;SDS011;16232;48.800;9.002;2023-05-02T02:15:31;20.03;;;16.77;;
92;SDS011;16232;48.800;9.002;2023-05-02T02:18:01;13.40;;;12.07;;
92;SDS011;16232;48.800;9.002;2023-05-02T02:20:30;15.17;;;13.20;;
92;SDS011;16232;48.800;9.002;2023-05-02T02:23:00;14.53;;;13.07;;
92;SDS011;16232;48.800;9.002;2023-05-02T02:25:29;13.33;;;11.93;;
92;SDS011;16232;48.800;9.002;2023-05-02T02:27:57;13.67;;;12.37;;
92;SDS011;16232;48.800;9.002;2023-05-02T02:30:24;13.40;;;12.00;;
92;SDS011;16232;48.800;9.002;2023-05-02T02:32:52;17.10;;;14.87;;
92;SDS011;16232;48.800;9.002;2023-05-02T02:35:19;14.00;;;12.60;;
92;SDS011;16232;48.800;9.002;2023-05-02T02:37:47;15.73;;;11.93;;
92;SDS011;16232;48.800;9.002;2023-05-02T02:40:20;15.70;;;14.10;;
92;SDS011;16232;48.800;9.002;2023-05-02T02:42:50;18.17;;;15.07;;
92;SDS011;16232;48.800;9.002;2023-05-02T02:45:22;16.87;;;14.77;;
92;SDS011;16232;48.800;9.002;2023-05-02T02:47:55;17.37;;;15.57;;
92;SDS011;16232;48.800;9.002;2023-05-02T02:50:26;17.73;;;15.60;;
92;SDS011;16232;48.800;9.002;2023-05-02T02:52:58;13.60;;;12.20;;
92;SDS011;16232;48.800;9.002;2023-05-02T02:55:37;12.63;;;11.33;;
92;SDS011;16232;48.800;9.002;2023-05-02T02:58:08;17.47;;;15.30;;
92;SDS011;16232;48.800;9.002;2023-05-02T03:00:36;16.40;;;14.67;;
92;SDS011;16232;48.800;9.002;2023-05-02T03:03:04;17.57;;;15.60;;
92;SDS011;16232;48.800;9.002;2023-05-02T03:05:33;13.20;;;11.87;;
92;SDS011;16232;48.800;9.002;2023-05-02T03:08:00;12.90;;;11.70;;
92;SDS011;16232;48.800;9.002;2023-05-02T03:10:28;13.90;;;12.50;;
92;SDS011;16232;48.800;9.002;2023-05-02T03:12:57;13.20;;;11.87;;
92;SDS011;16232;48.800;9.002;2023-05-02T03:15:29;14.93;;;13.43;;
92;SDS011;16232;48.800;9.002;2023-05-02T03:18:06;13.33;;;12.03;;
92;SDS011;16232;48.800;9.002;2023-05-02T03:20:34;13.07;;;11.73;;
92;SDS011;16232;48.800;9.002;2023-05-02T03:23:01;14.53;;;13.13;;
92;SDS011;16232;48.800;9.002;2023-05-02T03:25:28;12.07;;;11.00;;
92;SDS011;16232;48.800;9.002;2023-05-02T03:27:57;13.93;;;12.50;;
92;SDS011;16232;48.800;9.002;2023-05-02T03:30:24;14.23;;;12.13;;
92;SDS011;16232;48.800;9.002;2023-05-02T03:32:52;10.97;;;9.97;;
92;SDS011;16232;48.800;9.002;2023-05-02T03:35:19;13.63;;;12.27;;
92;SDS011;16232;48.800;9.002;2023-05-02T03:37:47;13.57;;;12.17;;
92;SDS011;16232;48.800;9.002;2023-05-02T03:40:15;17.10;;;14.17;;
92;SDS011;16232;48.800;9.002;2023-05-02T03:42:45;10.83;;;9.83;;
92;SDS011;16232;48.800;9.002;2023-05-02T03:45:14;13.47;;;12.10;;
92;SDS011;16232;48.800;9.002;2023-05-02T03:47:41;13.37;;;12.07;;
92;SDS011;16232;48.800;9.002;2023-05-02T03:50:09;13.53;;;11.97;;
92;SDS011;16232;48.800;9.002;2023-05-02T03:52:37;15.87;;;14.17;;
92;SDS011;16232;48.800;9.002;2023-05-02T03:55:04;14.70;;;13.17;;
92;SDS011;16232;48.800;9.002;2023-05-02T03:57:32;16.73;;;13.90;;
92;SDS011;16232;48.800;9.002;2023-05-02T03:59:59;12.07;;;10.87;;
92;SDS011;16232;48.800;9.002;2023-05-02T04:02:28;13.43;;;12.03;;
92;SDS011;16232;48.800;9.002;2023-05-02T04:04:56;14.87;;;13.37;;
92;SDS011;16232;48.800;9.002;2023-05-02T04:07:23;11.50;;;10.40;;
92;SDS011;16232;48.800;9.002;2023-05-02T04:09:51;13.80;;;12.47;;
92;SDS011;16232;48.800;9.002;2023-05-02T04:12:18;13.07;;;11.77;;
92;SDS011;16232;48.800;9.002;2023-05-02T04:14:46;14.50;;;13.10;;
92;SDS011;16232;48.800;9.002;2023-05-02T04:17:13;16.57;;;14.90;;
92;SDS011;16232;48.800;9.002;2023-05-02T04:19:42;17.83;;;15.43;;
92;SDS011;16232;48.800;9.002;2023-05-02T04:22:10;13.07;;;11.77;;
92;SDS011;16232;48.800;9.002;2023-05-02T04:24:37;15.93;;;14.23;;
92;SDS011;16232;48.800;9.002;2023-05-02T04:27:04;13.63;;;12.33;;
92;SDS011;16232;48.800;9.002;2023-05-02T04:29:32;12.67;;;11.50;;
92;SDS011;16232;48.800;9.002;2023-05-02T04:32:00;13.63;;;12.23;;
92;SDS011;16232;48.800;9.002;2023-05-02T04:34:27;18.27;;;16.33;;
92;SDS011;16232;48.800;9.002;2023-05-02T04:36:56;13.90;;;12.60;;
92;SDS011;16232;48.800;9.002;2023-05-02T04:39:23;12.17;;;11.07;;
92;SDS011;16232;48.800;9.002;2023-05-02T04:41:51;16.10;;;14.37;;
92;SDS011;16232;48.800;9.002;2023-05-02T04:44:18;14.33;;;12.83;;
92;SDS011;16232;48.800;9.002;2023-05-02T04:46:49;15.07;;;13.67;;
92;SDS011;16232;48.800;9.002;2023-05-02T04:49:16;18.53;;;15.97;;
92;SDS011;16232;48.800;9.002;2023-05-02T04:51:44;14.47;;;13.03;;
92;SDS011;16232;48.800;9.002;2023-05-02T04:54:13;16.00;;;14.30;;
92;SDS011;16232;48.800;9.002;2023-05-02T04:56:40;16.63;;;15.03;;
92;SDS011;16232;48.800;9.002;2023-05-02T04:59:08;14.57;;;13.20;;
92;SDS011;16232;48.800;9.002;2023-05-02T05:01:35;20.40;;;16.10;;
92;SDS011;16232;48.800;9.002;2023-05-02T05:04:03;16.33;;;14.53;;
92;SDS011;16232;48.800;9.002;2023-05-02T05:06:30;19.50;;;17.40;;
92;SDS011;16232;48.800;9.002;2023-05-02T05:08:58;13.93;;;12.63;;
92;SDS011;16232;48.800;9.002;2023-05-02T05:11:26;14.00;;;12.53;;
92;SDS011;16232;48.800;9.002;2023-05-02T05:13:54;18.10;;;16.30;;
92;SDS011;16232;48.800;9.002;2023-05-02T05:16:21;20.73;;;17.60;;
92;SDS011;16232;48.800;9.002;2023-05-02T05:18:49;12.70;;;11.53;;
92;SDS011;16232;48.800;9.002;2023-05-02T05:21:18;15.67;;;14.03;;
92;SDS011;16232;48.800;9.002;2023-05-02T05:23:45;15.13;;;13.73;;
92;SDS011;16232;48.800;9.002;2023-05-02T05:26:13;19.37;;;17.40;;
92;SDS011;16232;48.800;9.002;2023-05-02T05:28:42;17.90;;;16.13;;
92;SDS011;16232;48.800;9.002;2023-05-02T05:31:10;16.00;;;14.37;;
92;SDS011;16232;48.800;9.002;2023-05-02T05:33:40;16.03;;;14.43;;
92;SDS011;16232;48.800;9.002;2023-05-02T05:36:08;20.17;;;18.20;;
92;SDS011;16232;48.800;9.002;2023-05-02T05:38:36;18.03;;;16.27;;
92;SDS011;16232;48.800;9.002;2023-05-02T05:41:04;21.57;;;19.27;;
92;SDS011;16232;48.800;9.002;2023-05-02T05:43:32;16.70;;;15.20;;
92;SDS011;16232;48.800;9.002;2023-05-02T05:46:01;17.50;;;15.80;;
92;SDS011;16232;48.800;9.002;2023-05-02T05:48:28;20.20;;;18.17;;
92;SDS011;16232;48.800;9.002;2023-05-02T05:50:55;19.30;;;17.27;;
92;SDS011;16232;48.800;9.002;2023-05-02T05:53:23;18.90;;;16.90;;
92;SDS011;16232;48.800;9.002;2023-05-02T05:55:50;15.43;;;13.93;;
92;SDS011;16232;48.800;9.002;2023-05-02T05:58:18;18.43;;;16.73;;
92;SDS011;16232;48.800;9.002;2023-05-02T06:00:45;17.67;;;15.87;;
92;SDS011;16232;48.800;9.002;2023-05-02T06:03:14;16.90;;;15.30;;
92;SDS011;16232;48.800;9.002;2023-05-02T06:05:42;14.70;;;13.30;;
92;SDS011;16232;48.800;9.002;2023-05-02T06:08:09;18.10;;;16.50;;
92;SDS011;16232;48.800;9.002;2023-05-02T06:10:36;16.70;;;15.00;;
92;SDS011;16232;48.800;9.002;2023-05-02T06:13:04;16.17;;;14.50;;
92;SDS011;16232;48.800;9.002;2023-05-02T06:15:32;19.20;;;17.43;;
92;SDS011;16232;48.800;9.002;2023-05-02T06:17:59;19.87;;;18.00;;
92;SDS011;16232;48.800;9.002;2023-05-02T06:20:32;20.07;;;18.10;;
92;SDS011;16232;48.800;9.002;2023-05-02T06:23:01;22.47;;;20.37;;
92;SDS011;16232;48.800;9.002;2023-05-02T06:25:28;24.60;;;22.20;;
92;SDS011;16232;48.800;9.002;2023-05-02T06:27:58;23.53;;;21.23;;
92;SDS011;16232;48.800;9.002;2023-05-02T06:30:25;21.33;;;19.23;;
92;SDS011;16232;48.800;9.002;2023-05-02T06:32:52;25.03;;;20.77;;
92;SDS011;16232;48.800;9.002;2023-05-02T06:35:20;23.13;;;20.93;;
92;SDS011;16232;48.800;9.002;2023-05-02T06:37:48;22.37;;;20.27;;
92;SDS011;16232;48.800;9.002;2023-05-02T06:40:16;22.07;;;19.77;;
92;SDS011;16232;48.800;9.002;2023-05-02T06:42:43;22.63;;;20.33;;
92;SDS011;16232;48.800;9.002;2023-05-02T06:45:11;23.97;;;21.57;;
92;SDS011;16232;48.800;9.002;2023-05-02T06:47:38;23.03;;;20.90;;
92;SDS011;16232;48.800;9.002;2023-05-02T06:50:06;25.70;;;23.17;;
92;SDS011;16232;48.800;9.002;2023-05-02T06:52:34;22.43;;;20.33;;
92;SDS011;16232;48.800;9.002;2023-05-02T06:55:03;24.43;;;21.90;;
92;SDS011;16232;48.800;9.002;2023-05-02T06:57:30;23.47;;;21.27;;
92;SDS011;16232;48.800;9.002;2023-05-02T06:59:58;23.03;;;20.73;;
92;SDS011;16232;48.800;9.002;2023-05-02T07:02:25;25.80;;;23.40;;
92;SDS011;16232;48.800;9.002;2023-05-02T07:04:53;24.90;;;22.60;;
92;SDS011;16232;48.800;9.002;2023-05-02T07:07:20;23.83;;;21.53;;
92;SDS011;16232;48.800;9.002;2023-05-02T07:09:47;25.53;;;23.23;;
92;SDS011;16232;48.800;9.002;2023-05-02T07:12:16;26.93;;;24.13;;
92;SDS011;16232;48.800;9.002;2023-05-02T07:14:44;27.23;;;24.53;;
92;SDS011;16232;48.800;9.002;2023-05-02T07:17:11;26.07;;;23.57;;
92;SDS011;16232;48.800;9.002;2023-05-02T07:19:43;27.40;;;24.70;;
92;SDS011;16232;48.800;9.002;2023-05-02T07:22:10;27.07;;;24.20;;
92;SDS011;16232;48.800;9.002;2023-05-02T07:24:38;25.27;;;22.63;;
92;SDS011;16232;48.800;9.002;2023-05-02T07:27:07;25.67;;;23.17;;
92;SDS011;16232;48.800;9.002;2023-05-02T07:29:36;26.90;;;24.23;;
92;SDS011;16232;48.800;9.002;2023-05-02T07:32:03;28.57;;;25.67;;
92;SDS011;16232;48.800;9.002;2023-05-02T07:34:31;26.37;;;23.87;;
92;SDS011;16232;48.800;9.002;2023-05-02T07:36:58;27.67;;;24.87;;
92;SDS011;16232;48.800;9.002;2023-05-02T07:39:26;27.10;;;24.47;;
92;SDS011;16232;48.800;9.002;2023-05-02T07:41:54;28.60;;;25.80;;
92;SDS011;16232;48.800;9.002;2023-05-02T07:44:21;26.90;;;24.30;;
92;SDS011;16232;48.800;9.002;2023-05-02T07:46:50;29.27;;;26.33;;
92;SDS011;16232;48.800;9.002;2023-05-02T07:49:18;27.93;;;25.10;;
92;SDS011;16232;48.800;9.002;2023-05-02T07:51:45;28.50;;;25.70;;
92;SDS011;16232;48.800;9.002;2023-05-02T07:54:16;28.60;;;26.00;;
92;SDS011;16232;48.800;9.002;2023-05-02T07:56:44;30.73;;;27.53;;
92;SDS011;16232;48.800;9.002;2023-05-02T07:59:11;28.73;;;25.93;;
92;SDS011;16232;48.800;9.002;2023-05-02T08:01:39;29.17;;;26.33;;
92;SDS011;16232;48.800;9.002;2023-05-02T08:04:08;28.63;;;25.93;;
92;SDS011;16232;48.800;9.002;2023-05-02T08:06:35;25.60;;;23.10;;
92;SDS011;16232;48.800;9.002;2023-05-02T08:09:03;26.90;;;24.27;;
92;SDS011;16232;48.800;9.002;2023-05-02T08:11:30;29.13;;;26.23;;
92;SDS011;16232;48.800;9.002;2023-05-02T08:13:57;30.63;;;27.60;;
92;SDS011;16232;48.800;9.002;2023-05-02T08:16:25;28.50;;;25.87;;
92;SDS011;16232;48.800;9.002;2023-05-02T08:18:52;30.33;;;27.17;;
92;SDS011;16232;48.800;9.002;2023-05-02T08:21:21;29.67;;;26.80;;
92;SDS011;16232;48.800;9.002;2023-05-02T08:23:49;31.70;;;28.10;;
92;SDS011;16232;48.800;9.002;2023-05-02T08:26:16;30.37;;;27.37;;
92;SDS011;16232;48.800;9.002;2023-05-02T08:28:46;31.37;;;28.23;;
92;SDS011;16232;48.800;9.002;2023-05-02T08:31:13;27.23;;;24.53;;
92;SDS011;16232;48.800;9.002;2023-05-02T08:33:41;29.30;;;26.53;;
92;SDS011;16232;48.800;9.002;2023-05-02T08:36:09;27.30;;;24.60;;
92;SDS011;16232;48.800;9.002;2023-05-02T08:38:38;27.80;;;25.00;;
92;SDS011;16232;48.800;9.002;2023-05-02T08:41:08;28.20;;;25.63;;
92;SDS011;16232;48.800;9.002;2023-05-02T08:43:37;28.07;;;25.30;;
92;SDS011;16232;48.800;9.002;2023-05-02T08:46:05;28.13;;;25.43;;
92;SDS011;16232;48.800;9.002;2023-05-02T08:48:34;27.70;;;25.07;;
92;SDS011;16232;48.800;9.002;2023-05-02T08:51:01;27.23;;;24.53;;
92;SDS011;16232;48.800;9.002;2023-05-02T08:53:29;27.80;;;25.00;;
92;SDS011;16232;48.800;9.002;2023-05-02T08:55:59;24.53;;;22.20;;
92;SDS011;16232;48.800;9.002;2023-05-02T08:58:27;29.30;;;26.43;;
92;SDS011;16232;48.800;9.002;2023-05-02T09:00:55;27.60;;;24.93;;
92;SDS011;16232;48.800;9.002;2023-05-02T09:03:25;26.87;;;24.17;;
92;SDS011;16232;48.800;9.002;2023-05-02T09:05:57;26.93;;;24.20;;
92;SDS011;16232;48.800;9.002;2023-05-02T09:08:30;26.87;;;24.37;;
92;SDS011;16232;48.800;9.002;2023-05-02T09:10:57;27.87;;;25.27;;
92;SDS011;16232;48.800;9.002;2023-05-02T09:13:30;30.07;;;27.13;;
92;SDS011;16232;48.800;9.002;2023-05-02T09:15:58;27.63;;;24.83;;
92;SDS011;16232;48.800;9.002;2023-05-02T09:18:30;26.67;;;24.07;;
92;SDS011;16232;48.800;9.002;2023-05-02T09:20:58;26.97;;;24.43;;
92;SDS011;16232;48.800;9.002;2023-05-02T09:23:32;24.23;;;21.83;;
92;SDS011;16232;48.800;9.002;2023-05-02T09:26:00;23.43;;;21.33;;
92;SDS011;16232;48.800;9.002;2023-05-02T09:28:39;25.00;;;22.70;;
92;SDS011;16232;48.800;9.002;2023-05-02T09:31:06;24.13;;;21.87;;
92;SDS011;16232;48.800;9.002;2023-05-02T09:33:34;21.73;;;19.33;;
92;SDS011;16232;48.800;9.002;2023-05-02T09:36:02;21.43;;;19.43;;
92;SDS011;16232;48.800;9.002;2023-05-02T09:38:29;23.57;;;21.43;;
92;SDS011;16232;48.800;9.002;2023-05-02T09:40:57;18.47;;;16.57;;
92;SDS011;16232;48.800;9.002;2023-05-02T09:43:27;20.90;;;18.87;;
92;SDS011;16232;48.800;9.002;2023-05-02T09:45:57;19.33;;;17.53;;
92;SDS011;16232;48.800;9.002;2023-05-02T09:48:25;17.33;;;15.53;;
92;SDS011;16232;48.800;9.002;2023-05-02T09:50:52;18.20;;;16.07;;
92;SDS011;16232;48.800;9.002;2023-05-02T09:53:20;18.37;;;16.47;;
92;SDS011;16232;48.800;9.002;2023-05-02T09:55:47;18.77;;;16.97;;
92;SDS011;16232;48.800;9.002;2023-05-02T09:58:19;17.70;;;16.07;;
92;SDS011;16232;48.800;9.002;2023-05-02T10:00:47;19.03;;;17.13;;
92;SDS011;16232;48.800;9.002;2023-05-02T10:03:17;17.20;;;15.70;;
92;SDS011;16232;48.800;9.002;2023-05-02T10:05:45;17.07;;;15.47;;
92;SDS011;16232;48.800;9.002;2023-05-02T10:08:13;17.40;;;15.70;;
92;SDS011;16232;48.800;9.002;2023-05-02T10:10:45;18.30;;;16.70;;
92;SDS011;16232;48.800;9.002;2023-05-02T10:13:13;14.03;;;12.73;;
92;SDS011;16232;48.800;9.002;2023-05-02T10:15:42;16.70;;;15.20;;
92;SDS011;16232;48.800;9.002;2023-05-02T10:18:11;12.77;;;11.67;;
92;SDS011;16232;48.800;9.002;2023-05-02T10:20:42;16.00;;;14.60;;
92;SDS011;16232;48.800;9.002;2023-05-02T10:23:09;16.17;;;14.67;;
92;SDS011;16232;48.800;9.002;2023-05-02T10:25:37;17.00;;;15.50;;
92;SDS011;16232;48.800;9.002;2023-05-02T10:28:05;15.23;;;13.93;;
92;SDS011;16232;48.800;9.002;2023-05-02T10:30:33;17.97;;;16.27;;
92;SDS011;16232;48.800;9.002;2023-05-02T10:33:01;16.50;;;15.03;;
92;SDS011;16232;48.800;9.002;2023-05-02T10:35:29;16.43;;;14.83;;
92;SDS011;16232;48.800;9.002;2023-05-02T10:37:58;16.10;;;14.70;;
92;SDS011;16232;48.800;9.002;2023-05-02T10:40:26;17.10;;;15.43;;
92;SDS011;16232;48.800;9.002;2023-05-02T10:42:53;17.83;;;16.13;;
92;SDS011;16232;48.800;9.002;2023-05-02T10:45:31;16.23;;;14.77;;
92;SDS011;16232;48.800;9.002;2023-05-02T10:50:47;17.30;;;15.70;;
92;SDS011;16232;48.800;9.002;2023-05-02T10:53:30;17.00;;;15.50;;
92;SDS011;16232;48.800;9.002;2023-05-02T10:56:10;17.10;;;15.47;;
92;SDS011;16232;48.800;9.002;2023-05-02T10:58:38;16.03;;;14.60;;
92;SDS011;16232;48.800;9.002;2023-05-02T11:03:52;17.23;;;15.47;;
92;SDS011;16232;48.800;9.002;2023-05-02T11:06:20;17.30;;;15.70;;
92;SDS011;16232;48.800;9.002;2023-05-02T11:08:49;18.43;;;16.73;;
92;SDS011;16232;48.800;9.002;2023-05-02T11:11:36;19.83;;;17.97;;
92;SDS011;16232;48.800;9.002;2023-05-02T11:14:05;19.90;;;18.00;;
92;SDS011;16232;48.800;9.002;2023-05-02T11:19:20;19.53;;;17.63;;
92;SDS011;16232;48.800;9.002;2023-05-02T11:21:47;20.67;;;18.73;;
92;SDS011;16232;48.800;9.002;2023-05-02T11:29:54;18.40;;;16.70;;
92;SDS011;16232;48.800;9.002;2023-05-02T11:32:21;18.70;;;16.90;;
92;SDS011;16232;48.800;9.002;2023-05-02T11:34:49;16.23;;;14.73;;
92;SDS011;16232;48.800;9.002;2023-05-02T11:37:17;20.53;;;18.67;;
92;SDS011;16232;48.800;9.002;2023-05-02T11:39:45;21.53;;;19.63;;
92;SDS011;16232;48.800;9.002;2023-05-02T11:42:26;20.97;;;19.07;;
92;SDS011;16232;48.800;9.002;2023-05-02T11:44:56;19.50;;;17.63;;
92;SDS011;16232;48.800;9.002;2023-05-02T11:47:24;18.77;;;17.00;;
92;SDS011;16232;48.800;9.002;2023-05-02T11:49:53;17.43;;;15.80;;
92;SDS011;16232;48.800;9.002;2023-05-02T11:52:21;19.80;;;18.10;;
92;SDS011;16232;48.800;9.002;2023-05-02T11:54:48;17.50;;;16.00;;
92;SDS011;16232;48.800;9.002;2023-05-02T11:57:16;16.97;;;15.57;;
92;SDS011;16232;48.800;9.002;2023-05-02T11:59:50;21.43;;;19.53;;
92;SDS011;16232;48.800;9.002;2023-05-02T12:02:19;20.43;;;18.73;;
92;SDS011;16232;48.800;9.002;2023-05-02T12:04:46;21.20;;;19.40;;
92;SDS011;16232;48.800;9.002;2023-05-02T12:07:14;20.87;;;19.00;;
92;SDS011;16232;48.800;9.002;2023-05-02T12:09:50;22.03;;;20.00;;
92;SDS011;16232;48.800;9.002;2023-05-02T12:12:21;22.80;;;20.40;;
92;SDS011;16232;48.800;9.002;2023-05-02T12:14:48;22.20;;;20.10;;
92;SDS011;16232;48.800;9.002;2023-05-02T12:17:15;20.43;;;18.43;;
92;SDS011;16232;48.800;9.002;2023-05-02T12:19:44;21.67;;;19.57;;
92;SDS011;16232;48.800;9.002;2023-05-02T12:22:12;25.30;;;22.70;;
92;SDS011;16232;48.800;9.002;2023-05-02T12:24:40;24.57;;;22.13;;
92;SDS011;16232;48.800;9.002;2023-05-02T12:27:09;25.83;;;23.43;;
92;SDS011;16232;48.800;9.002;2023-05-02T12:29:37;25.43;;;22.97;;
92;SDS011;16232;48.800;9.002;2023-05-02T12:32:05;25.63;;;23.00;;
92;SDS011;16232;48.800;9.002;2023-05-02T12:34:32;24.50;;;22.20;;
92;SDS011;16232;48.800;9.002;2023-05-02T12:37:01;25.10;;;22.60;;
92;SDS011;16232;48.800;9.002;2023-05-02T12:39:35;23.43;;;21.33;;
92;SDS011;16232;48.800;9.002;2023-05-02T12:42:09;21.87;;;19.87;;
92;SDS011;16232;48.800;9.002;2023-05-02T12:44:37;20.73;;;18.83;;
92;SDS011;16232;48.800;9.002;2023-05-02T12:47:05;19.07;;;17.47;;
92;SDS011;16232;48.800;9.002;2023-05-02T12:49:32;20.77;;;18.87;;
92;SDS011;16232;48.800;9.002;2023-05-02T12:52:00;19.93;;;18.17;;
92;SDS011;16232;48.800;9.002;2023-05-02T12:54:28;19.77;;;18.07;;
92;SDS011;16232;48.800;9.002;2023-05-02T12:56:56;19.57;;;17.90;;
92;SDS011;16232;48.800;9.002;2023-05-02T12:59:25;20.97;;;19.07;;
92;SDS011;16232;48.800;9.002;2023-05-02T13:01:52;20.17;;;18.37;;
92;SDS011;16232;48.800;9.002;2023-05-02T13:04:19;19.87;;;18.07;;
92;SDS011;16232;48.800;9.002;2023-05-02T13:06:47;19.43;;;17.63;;
92;SDS011;16232;48.800;9.002;2023-05-02T13:09:14;20.50;;;18.47;;
92;SDS011;16232;48.800;9.002;2023-05-02T13:11:47;21.47;;;19.57;;
92;SDS011;16232;48.800;9.002;2023-05-02T13:14:15;18.27;;;16.67;;
92;SDS011;16232;48.800;9.002;2023-05-02T13:16:42;19.57;;;17.67;;
92;SDS011;16232;48.800;9.002;2023-05-02T13:19:10;17.30;;;15.70;;
92;SDS011;16232;48.800;9.002;2023-05-02T13:21:37;16.37;;;14.90;;
92;SDS011;16232;48.800;9.002;2023-05-02T13:24:05;13.90;;;12.70;;
92;SDS011;16232;48.800;9.002;2023-05-02T13:26:32;15.30;;;13.97;;
92;SDS011;16232;48.800;9.002;2023-05-02T13:29:01;16.90;;;15.37;;
92;SDS011;16232;48.800;9.002;2023-05-02T13:31:28;16.90;;;15.20;;
92;SDS011;16232;48.800;9.002;2023-05-02T13:33:56;17.57;;;16.07;;
92;SDS011;16232;48.800;9.002;2023-05-02T13:36:23;18.00;;;16.37;;
92;SDS011;16232;48.800;9.002;2023-05-02T13:38:51;17.40;;;15.73;;
92;SDS011;16232;48.800;9.002;2023-05-02T13:41:18;18.27;;;16.53;;
92;SDS011;16232;48.800;9.002;2023-05-02T13:43:46;17.27;;;15.67;;
92;SDS011;16232;48.800;9.002;2023-05-02T13:46:15;16.50;;;15.00;;
92;SDS011;16232;48.800;9.002;2023-05-02T13:48:42;15.70;;;14.20;;
92;SDS011;16232;48.800;9.002;2023-05-02T13:51:09;14.33;;;13.03;;
92;SDS011;16232;48.800;9.002;2023-05-02T13:53:37;13.03;;;11.87;;
92;SDS011;16232;48.800;9.002;2023-05-02T13:56:04;13.00;;;11.90;;
92;SDS011;16232;48.800;9.002;2023-05-02T13:58:32;14.87;;;13.43;;
92;SDS011;16232;48.800;9.002;2023-05-02T14:00:59;14.93;;;13.63;;
92;SDS011;16232;48.800;9.002;2023-05-02T14:03:28;14.33;;;12.93;;
92;SDS011;16232;48.800;9.002;2023-05-02T14:05:55;16.20;;;14.70;;
92;SDS011;16232;48.800;9.002;2023-05-02T14:08:23;14.13;;;12.73;;
92;SDS011;16232;48.800;9.002;2023-05-02T14:10:50;14.63;;;13.23;;
92;SDS011;16232;48.800;9.002;2023-05-02T14:13:18;15.43;;;13.50;;
92;SDS011;16232;48.800;9.002;2023-05-02T14:15:45;12.73;;;11.53;;
92;SDS011;16232;48.800;9.002;2023-05-02T14:18:12;12.53;;;11.23;;
92;SDS011;16232;48.800;9.002;2023-05-02T14:20:42;11.33;;;10.23;;
92;SDS011;16232;48.800;9.002;2023-05-02T14:23:09;10.77;;;9.77;;
92;SDS011;16232;48.800;9.002;2023-05-02T14:25:37;14.13;;;10.90;;
92;SDS011;16232;48.800;9.002;2023-05-02T14:28:04;10.80;;;9.90;;
92;SDS011;16232;48.800;9.002;2023-05-02T14:30:32;12.23;;;11.13;;
92;SDS011;16232;48.800;9.002;2023-05-02T14:32:59;13.83;;;12.53;;
92;SDS011;16232;48.800;9.002;2023-05-02T14:35:27;12.83;;;11.63;;
92;SDS011;16232;48.800;9.002;2023-05-02T14:37:55;12.23;;;10.67;;
92;SDS011;16232;48.800;9.002;2023-05-02T14:40:23;9.50;;;8.50;;
92;SDS011;16232;48.800;9.002;2023-05-02T14:42:50;10.40;;;9.30;;
92;SDS011;16232;48.800;9.002;2023-05-02T14:45:18;11.47;;;10.30;;
92;SDS011;16232;48.800;9.002;2023-05-02T14:47:45;11.23;;;10.23;;
92;SDS011;16232;48.800;9.002;2023-05-02T14:50:13;11.83;;;10.70;;
92;SDS011;16232;48.800;9.002;2023-05-02T14:52:41;10.10;;;9.20;;
92;SDS011;16232;48.800;9.002;2023-05-02T14:55:11;12.40;;;10.90;;
92;SDS011;16232;48.800;9.002;2023-05-02T14:57:39;11.30;;;10.10;;
92;SDS011;16232;48.800;9.002;2023-05-02T15:00:07;11.37;;;10.27;;
92;SDS011;16232;48.800;9.002;2023-05-02T15:02:35;11.20;;;9.63;;
92;SDS011;16232;48.800;9.002;2023-05-02T15:05:02;10.97;;;9.47;;
92;SDS011;16232;48.800;9.002;2023-05-02T15:07:32;10.50;;;9.40;;
92;SDS011;16232;48.800;9.002;2023-05-02T15:09:59;10.97;;;9.87;;
92;SDS011;16232;48.800;9.002;2023-05-02T15:12:28;10.40;;;9.30;;
92;SDS011;16232;48.800;9.002;2023-05-02T15:14:55;8.87;;;7.97;;
92;SDS011;16232;48.800;9.002;2023-05-02T15:17:23;9.80;;;8.37;;
92;SDS011;16232;48.800;9.002;2023-05-02T15:19:50;9.40;;;8.50;;
92;SDS011;16232;48.800;9.002;2023-05-02T15:22:17;10.70;;;9.60;;
92;SDS011;16232;48.800;9.002;2023-05-02T15:24:46;9.97;;;8.83;;